Schedule Details


Flight Number: CTN454
Departure: Cilipi (LDDU) at 13:50
Arrival: Pula (LDPL) at 14:50
Route: AMUGO UL611 UVODI UL862 SPL UL607 ZDA N606 LOS

Weather Information
LDDU 172230Z 10005KT CAVOK 20/17 Q1018
LDPL 172230Z 00000KT CAVOK 19/16 Q1017
Schedule Frequency

Route Map